createdAt,value
2018-03-26T00:02:20.296Z,68.90
2018-03-26T00:04:47.819Z,68.80
2018-03-26T00:07:15.339Z,69.00
2018-03-26T00:09:42.883Z,68.90
2018-03-26T00:12:11.323Z,69.00
2018-03-26T00:14:39.677Z,69.40
2018-03-26T00:17:07.209Z,69.40
2018-03-26T00:19:34.738Z,69.30
2018-03-26T00:22:02.260Z,69.80
2018-03-26T00:24:29.780Z,70.00
2018-03-26T00:26:57.292Z,70.60
2018-03-26T00:29:25.567Z,71.50
2018-03-26T00:31:53.101Z,70.70
2018-03-26T00:34:20.607Z,70.80
2018-03-26T00:36:48.905Z,71.50
2018-03-26T00:39:17.178Z,71.50
2018-03-26T00:41:44.708Z,71.70
2018-03-26T00:44:12.227Z,72.10
2018-03-26T00:46:39.735Z,71.80
2018-03-26T00:49:08.088Z,72.50
2018-03-26T00:51:35.615Z,72.40
2018-03-26T00:54:03.131Z,72.70
2018-03-26T00:56:30.638Z,72.40
2018-03-26T00:58:58.192Z,71.70
2018-03-26T01:01:25.719Z,72.50
2018-03-26T01:03:53.998Z,73.00
2018-03-26T01:06:21.520Z,72.80
2018-03-26T01:08:49.063Z,72.80
2018-03-26T01:11:16.602Z,73.30
2018-03-26T01:13:44.135Z,72.80
2018-03-26T01:16:11.659Z,72.70
2018-03-26T01:18:39.205Z,72.00
2018-03-26T01:21:06.740Z,72.20
2018-03-26T01:23:34.297Z,72.30
2018-03-26T01:26:01.811Z,72.80
2018-03-26T01:28:29.319Z,72.70
2018-03-26T01:30:56.844Z,72.80
2018-03-26T01:33:25.139Z,73.00
2018-03-26T01:35:53.428Z,73.20
2018-03-26T01:38:20.943Z,73.10
2018-03-26T01:40:48.467Z,72.60
2018-03-26T01:43:16.022Z,72.80
2018-03-26T01:45:43.547Z,73.20
2018-03-26T01:48:11.071Z,73.40
2018-03-26T01:50:38.619Z,73.00
2018-03-26T01:53:06.132Z,72.90
2018-03-26T01:55:33.655Z,73.20
2018-03-26T01:58:01.178Z,73.50
2018-03-26T02:00:28.701Z,72.80
2018-03-26T02:02:56.987Z,73.30
2018-03-26T02:05:24.519Z,73.30
2018-03-26T02:07:52.040Z,73.60
2018-03-26T02:10:19.577Z,73.20
2018-03-26T02:12:47.103Z,73.20
2018-03-26T02:15:15.577Z,73.40
2018-03-26T02:17:43.099Z,73.90
2018-03-26T02:20:10.608Z,74.10
2018-03-26T02:22:38.132Z,74.50
2018-03-26T02:25:05.655Z,74.20
2018-03-26T02:27:33.174Z,74.10
2018-03-26T02:30:00.689Z,74.20
2018-03-26T02:32:28.212Z,74.20
2018-03-26T02:34:55.761Z,74.60
2018-03-26T02:37:23.280Z,74.50
2018-03-26T02:39:51.507Z,74.80
2018-03-26T02:42:19.502Z,74.80
2018-03-26T02:44:47.813Z,75.90
2018-03-26T02:47:15.431Z,75.80
2018-03-26T02:49:42.956Z,75.10
2018-03-26T02:52:10.498Z,75.10
2018-03-26T02:54:38.015Z,75.70
2018-03-26T02:57:06.310Z,77.40
2018-03-26T02:59:33.832Z,77.40
2018-03-26T03:02:01.344Z,78.40
2018-03-26T03:04:28.879Z,78.90
2018-03-26T03:06:57.190Z,80.20
2018-03-26T03:09:24.723Z,80.20
2018-03-26T03:11:52.998Z,81.40
2018-03-26T03:14:21.276Z,81.80
2018-03-26T03:16:48.799Z,81.70
2018-03-26T03:19:16.311Z,82.00
2018-03-26T03:21:43.862Z,82.10
2018-03-26T03:24:11.377Z,82.00
2018-03-26T03:26:38.932Z,82.40
2018-03-26T03:29:06.448Z,82.20
2018-03-26T03:31:34.753Z,82.30
2018-03-26T03:34:02.267Z,82.30
2018-03-26T03:36:30.562Z,81.80
2018-03-26T03:38:58.128Z,81.80
2018-03-26T03:41:25.655Z,82.10
2018-03-26T03:43:53.165Z,82.30
2018-03-26T03:46:20.692Z,82.80
2018-03-26T03:48:48.231Z,83.00
2018-03-26T03:51:15.745Z,82.80
2018-03-26T03:53:43.264Z,82.70
2018-03-26T03:56:10.807Z,82.90
2018-03-26T03:58:38.342Z,83.00
2018-03-26T04:01:05.859Z,83.00
2018-03-26T04:03:34.150Z,82.70
2018-03-26T04:06:01.663Z,82.50
2018-03-26T04:08:29.784Z,82.50
2018-03-26T04:10:57.299Z,82.90
2018-03-26T04:13:24.840Z,82.50
2018-03-26T04:15:52.360Z,82.60
2018-03-26T04:18:19.877Z,82.60
2018-03-26T04:20:47.392Z,82.50
2018-03-26T04:23:14.904Z,82.60
2018-03-26T04:25:42.438Z,81.80
2018-03-26T04:28:09.973Z,81.20
2018-03-26T04:30:37.497Z,81.20
2018-03-26T04:33:05.795Z,81.10
2018-03-26T04:35:33.303Z,81.10
2018-03-26T04:38:00.851Z,81.20
2018-03-26T04:40:28.367Z,81.60
2018-03-26T04:42:55.889Z,81.70
2018-03-26T04:45:23.506Z,81.60
2018-03-26T04:47:51.044Z,81.60
2018-03-26T04:50:18.556Z,81.60
2018-03-26T04:52:46.081Z,81.90
2018-03-26T04:55:13.611Z,81.80
2018-03-26T04:57:41.123Z,81.80
2018-03-26T05:00:08.648Z,82.40
2018-03-26T05:02:36.185Z,82.40
2018-03-26T05:05:03.748Z,82.40
2018-03-26T05:07:31.268Z,81.90
2018-03-26T05:09:58.797Z,82.90
2018-03-26T05:12:27.806Z,82.90
2018-03-26T05:14:55.322Z,82.90
2018-03-26T05:17:22.937Z,83.20
2018-03-26T05:19:50.461Z,82.90
2018-03-26T05:22:18.743Z,83.00
2018-03-26T05:24:47.020Z,82.40
2018-03-26T05:27:14.541Z,82.40
2018-03-26T05:29:42.069Z,82.10
2018-03-26T05:32:09.596Z,81.70
2018-03-26T05:34:37.896Z,81.60
2018-03-26T05:37:05.428Z,81.60
2018-03-26T05:39:32.976Z,82.10
2018-03-26T05:42:00.500Z,81.90
2018-03-26T05:44:28.026Z,82.10
2018-03-26T05:46:56.319Z,82.60
2018-03-26T05:49:23.839Z,82.60
2018-03-26T05:51:51.359Z,82.40
2018-03-26T05:54:18.887Z,82.40
2018-03-26T05:56:47.163Z,83.30
2018-03-26T05:59:15.458Z,82.80
2018-03-26T06:01:42.981Z,82.80
2018-03-26T06:04:10.497Z,82.60
2018-03-26T06:06:38.525Z,83.30
2018-03-26T06:09:06.804Z,84.30
2018-03-26T06:11:35.146Z,84.00
2018-03-26T06:14:03.430Z,83.80
2018-03-26T06:16:30.935Z,83.80
2018-03-26T06:18:58.487Z,83.20
2018-03-26T06:21:26.771Z,82.90
2018-03-26T06:23:54.299Z,82.90
2018-03-26T06:26:21.861Z,82.90
2018-03-26T06:28:50.176Z,83.20
2018-03-26T06:31:17.752Z,83.10
2018-03-26T06:33:45.289Z,83.00
2018-03-26T06:36:14.489Z,82.60
2018-03-26T06:38:47.692Z,82.30
2018-03-26T06:41:15.262Z,83.00
2018-03-26T06:43:42.783Z,83.00
2018-03-26T06:46:10.307Z,83.60
2018-03-26T06:48:37.824Z,83.10
2018-03-26T06:51:05.354Z,82.20
2018-03-26T06:53:32.865Z,82.10
2018-03-26T06:56:00.394Z,83.30
2018-03-26T06:58:28.730Z,82.20
2018-03-26T07:00:56.251Z,82.20
2018-03-26T07:03:23.787Z,82.50
2018-03-26T07:05:51.303Z,81.90
2018-03-26T07:08:18.829Z,81.80
2018-03-26T07:10:46.352Z,81.30
2018-03-26T07:13:13.876Z,81.10
2018-03-26T07:15:41.396Z,80.50
2018-03-26T07:18:08.919Z,82.00
2018-03-26T07:20:36.432Z,81.70
2018-03-26T07:23:03.953Z,82.40
2018-03-26T07:25:31.942Z,81.70
2018-03-26T07:28:00.232Z,82.20
2018-03-26T07:30:27.795Z,82.20
2018-03-26T07:32:56.240Z,82.30
2018-03-26T07:35:23.756Z,82.20
2018-03-26T07:37:51.292Z,81.90
2018-03-26T07:40:18.815Z,81.50
2018-03-26T07:42:46.353Z,81.80
2018-03-26T07:45:13.878Z,81.00
2018-03-26T07:47:41.423Z,80.90
2018-03-26T07:50:08.940Z,80.90
2018-03-26T07:52:36.456Z,81.50
2018-03-26T07:55:04.732Z,79.70
2018-03-26T07:57:32.292Z,79.70
2018-03-26T08:00:00.608Z,80.50
2018-03-26T08:02:28.136Z,80.40
2018-03-26T08:04:56.432Z,81.60
2018-03-26T08:07:23.962Z,81.60
2018-03-26T08:09:52.260Z,80.40
2018-03-26T08:12:19.777Z,80.30
2018-03-26T08:14:47.300Z,79.90
2018-03-26T08:17:14.872Z,78.90
2018-03-26T08:19:42.381Z,79.30
2018-03-26T08:22:09.919Z,78.40
2018-03-26T08:24:37.443Z,78.10
2018-03-26T08:27:04.970Z,78.40
2018-03-26T08:29:33.253Z,76.00
2018-03-26T08:32:00.773Z,76.00
2018-03-26T08:34:28.328Z,73.90
2018-03-26T08:36:55.854Z,73.70
2018-03-26T08:39:23.376Z,71.30
2018-03-26T08:41:51.671Z,71.70
2018-03-26T08:44:19.187Z,71.60
2018-03-26T08:46:46.703Z,68.40
2018-03-26T08:49:14.271Z,66.80
2018-03-26T08:51:41.808Z,67.20
2018-03-26T08:54:10.088Z,64.50
2018-03-26T08:56:37.669Z,64.40
2018-03-26T08:59:05.208Z,66.10
2018-03-26T09:01:33.510Z,71.00
2018-03-26T09:04:01.033Z,71.00
2018-03-26T09:06:29.318Z,69.10
2018-03-26T09:08:56.848Z,68.90
2018-03-26T09:11:24.368Z,70.50
2018-03-26T09:13:51.876Z,69.60
2018-03-26T09:16:19.404Z,69.30
2018-03-26T09:18:46.934Z,70.00
2018-03-26T09:21:14.451Z,71.90
2018-03-26T09:23:41.976Z,72.40
2018-03-26T09:26:09.505Z,74.40
2018-03-26T09:28:37.508Z,76.30
2018-03-26T09:31:05.040Z,77.00
2018-03-26T09:33:32.581Z,75.80
2018-03-26T09:36:00.875Z,76.00
2018-03-26T09:38:28.406Z,75.30
2018-03-26T09:40:55.932Z,74.70
2018-03-26T09:43:23.457Z,73.70
2018-03-26T09:45:51.739Z,72.10
2018-03-26T09:48:19.255Z,71.90
2018-03-26T09:50:46.778Z,69.30
2018-03-26T09:53:14.306Z,68.30
2018-03-26T09:55:41.840Z,70.00
2018-03-26T09:58:09.481Z,66.80
2018-03-26T10:00:42.776Z,63.70
2018-03-26T10:03:10.315Z,62.40
2018-03-26T10:05:38.793Z,61.50
2018-03-26T10:08:06.309Z,65.10
2018-03-26T10:10:33.827Z,63.20
2018-03-26T10:13:01.359Z,60.50
2018-03-26T10:15:28.938Z,59.80
2018-03-26T10:17:56.571Z,59.50
2018-03-26T10:20:24.858Z,57.90
2018-03-26T10:22:53.153Z,55.80
2018-03-26T10:25:20.691Z,55.80
2018-03-26T10:27:48.979Z,55.60
2018-03-26T10:30:16.497Z,56.10
2018-03-26T10:32:44.039Z,55.40
2018-03-26T10:35:11.576Z,54.00
2018-03-26T10:37:39.109Z,54.30
2018-03-26T10:40:06.626Z,52.20
2018-03-26T10:42:34.153Z,53.30
2018-03-26T10:45:01.680Z,52.10
2018-03-26T10:47:29.221Z,51.80
2018-03-26T10:49:56.782Z,51.20
2018-03-26T10:52:24.311Z,52.20
2018-03-26T10:54:51.828Z,51.20
2018-03-26T10:57:19.356Z,53.10
2018-03-26T10:59:46.886Z,52.00
2018-03-26T11:02:14.420Z,50.30
2018-03-26T11:04:42.717Z,49.90
2018-03-26T11:07:10.238Z,49.90
2018-03-26T11:09:39.248Z,48.90
2018-03-26T11:12:07.547Z,47.20
2018-03-26T11:14:35.088Z,47.10
2018-03-26T11:17:03.389Z,45.90
2018-03-26T11:19:30.923Z,45.90
2018-03-26T11:21:59.231Z,44.30
2018-03-26T11:24:26.757Z,44.20
2018-03-26T11:26:55.048Z,47.40
2018-03-26T11:29:22.563Z,47.30
2018-03-26T11:31:50.081Z,44.80
2018-03-26T11:34:17.620Z,46.90
2018-03-26T11:36:45.152Z,45.70
2018-03-26T11:39:12.676Z,46.50
2018-03-26T11:41:40.680Z,43.60
2018-03-26T11:44:08.220Z,43.50
2018-03-26T11:46:35.756Z,40.50
2018-03-26T11:49:03.275Z,41.00
2018-03-26T11:51:30.792Z,40.80
2018-03-26T11:53:58.315Z,41.10
2018-03-26T11:56:25.836Z,42.60
2018-03-26T11:58:53.354Z,38.70
2018-03-26T12:01:20.886Z,41.30
2018-03-26T12:03:48.395Z,42.00
2018-03-26T12:06:15.932Z,44.30
2018-03-26T12:08:43.448Z,42.60
2018-03-26T12:11:11.013Z,40.20
2018-03-26T12:13:40.057Z,40.00
2018-03-26T12:16:07.610Z,40.00
2018-03-26T12:18:35.217Z,40.30
2018-03-26T12:21:02.732Z,39.10
2018-03-26T12:23:41.903Z,41.10
2018-03-26T12:26:09.446Z,42.60
2018-03-26T12:28:48.707Z,42.20
2018-03-26T12:31:16.238Z,40.80
2018-03-26T12:33:55.439Z,40.00
2018-03-26T12:36:22.962Z,41.60
2018-03-26T12:38:50.498Z,40.40
2018-03-26T12:41:18.015Z,40.70
2018-03-26T12:43:46.295Z,41.90
2018-03-26T12:46:26.393Z,41.80
2018-03-26T12:48:53.936Z,41.80
2018-03-26T12:51:33.326Z,42.40
2018-03-26T12:54:00.847Z,43.30
2018-03-26T12:56:28.393Z,40.80
2018-03-26T12:58:55.924Z,41.30
2018-03-26T13:01:35.915Z,38.30
2018-03-26T13:04:03.429Z,38.20
2018-03-26T13:06:31.762Z,39.60
2018-03-26T13:08:59.277Z,39.60
2018-03-26T13:11:27.564Z,41.30
2018-03-26T13:13:55.157Z,41.20
2018-03-26T13:16:22.705Z,41.60
2018-03-26T13:18:50.223Z,41.70
2018-03-26T13:21:17.755Z,42.70
2018-03-26T13:23:45.293Z,42.40
2018-03-26T13:26:12.826Z,42.10
2018-03-26T13:28:40.352Z,43.10
2018-03-26T13:31:07.877Z,43.30
2018-03-26T13:33:35.447Z,42.60
2018-03-26T13:36:02.988Z,43.50
2018-03-26T13:38:30.536Z,43.30
2018-03-26T13:40:58.059Z,44.70
2018-03-26T13:43:25.586Z,44.30
2018-03-26T13:45:53.107Z,44.00
2018-03-26T13:48:21.401Z,45.50
2018-03-26T13:50:48.928Z,45.50
2018-03-26T13:53:16.456Z,45.60
2018-03-26T13:55:43.977Z,44.70
2018-03-26T13:58:11.505Z,44.90
2018-03-26T14:00:39.838Z,44.40
2018-03-26T14:03:07.418Z,44.30
2018-03-26T14:05:34.947Z,43.10
2018-03-26T14:08:02.478Z,43.60
2018-03-26T14:10:41.824Z,40.20
2018-03-26T14:13:21.147Z,40.20
2018-03-26T14:18:53.212Z,40.60
2018-03-26T14:21:20.772Z,40.10
2018-03-26T14:23:48.284Z,41.90
2018-03-26T14:26:15.787Z,42.60
2018-03-26T14:28:43.310Z,43.20
2018-03-26T14:31:10.832Z,42.90
2018-03-26T14:33:39.142Z,43.90
2018-03-26T14:36:06.658Z,43.20
2018-03-26T14:38:34.175Z,42.00
2018-03-26T14:41:01.700Z,43.30
2018-03-26T14:43:29.299Z,42.80
2018-03-26T14:45:56.816Z,41.90
2018-03-26T14:48:25.099Z,43.40
2018-03-26T14:50:52.639Z,43.30
2018-03-26T14:53:20.155Z,42.30
2018-03-26T14:55:47.671Z,42.00
2018-03-26T14:58:15.188Z,42.20
2018-03-26T15:00:42.715Z,44.40
2018-03-26T15:03:10.282Z,43.30
2018-03-26T15:05:37.788Z,43.40
2018-03-26T15:08:05.326Z,43.40
2018-03-26T15:10:32.875Z,44.00
2018-03-26T15:13:00.398Z,44.30
2018-03-26T15:15:28.682Z,44.70
2018-03-26T15:17:56.209Z,44.60
2018-03-26T15:20:23.776Z,43.60
2018-03-26T15:22:51.290Z,43.40
2018-03-26T15:25:18.821Z,43.80
2018-03-26T15:27:47.098Z,44.50
2018-03-26T15:30:15.384Z,43.50
2018-03-26T15:32:43.659Z,42.90
2018-03-26T15:35:11.184Z,42.80
2018-03-26T15:37:38.712Z,43.10
2018-03-26T15:40:06.227Z,43.90
2018-03-26T15:42:34.535Z,42.60
2018-03-26T15:45:02.143Z,42.50
2018-03-26T15:47:29.664Z,41.80
2018-03-26T15:49:57.252Z,41.50
2018-03-26T15:52:24.782Z,41.80
2018-03-26T15:54:52.305Z,42.10
2018-03-26T15:57:19.856Z,42.10
2018-03-26T15:59:47.391Z,42.80
2018-03-26T16:02:14.429Z,44.00
2018-03-26T16:04:41.991Z,43.10
2018-03-26T16:07:09.518Z,43.50
2018-03-26T16:09:37.067Z,44.30
2018-03-26T16:12:04.595Z,44.70
2018-03-26T16:14:32.135Z,45.50
2018-03-26T16:16:59.658Z,46.00
2018-03-26T16:19:27.197Z,46.40
2018-03-26T16:21:54.760Z,46.70
2018-03-26T16:24:23.068Z,47.90
2018-03-26T16:26:50.610Z,47.90
2018-03-26T16:29:18.900Z,47.90
2018-03-26T16:31:46.459Z,47.90
2018-03-26T16:34:14.753Z,49.20
2018-03-26T16:36:42.326Z,49.20
2018-03-26T16:39:09.868Z,49.90
2018-03-26T16:41:47.069Z,50.20
2018-03-26T16:44:14.598Z,50.30
2018-03-26T16:46:42.139Z,50.60
2018-03-26T16:49:09.690Z,50.60
2018-03-26T16:51:37.250Z,48.40
2018-03-26T16:54:04.801Z,47.50
2018-03-26T16:56:32.380Z,46.10
2018-03-26T16:58:59.904Z,45.90
2018-03-26T17:01:27.430Z,46.30
2018-03-26T17:03:55.756Z,46.20
2018-03-26T17:06:23.310Z,46.20
2018-03-26T17:08:50.819Z,47.50
2018-03-26T17:11:18.395Z,47.80
2018-03-26T17:13:45.948Z,49.80
2018-03-26T17:16:13.474Z,52.30
2018-03-26T17:18:41.580Z,53.30
2018-03-26T17:21:09.109Z,54.10
2018-03-26T17:23:36.634Z,54.50
2018-03-26T17:26:04.561Z,53.20
2018-03-26T17:28:32.087Z,53.10
2018-03-26T17:30:59.642Z,52.80
2018-03-26T17:33:27.146Z,53.00
2018-03-26T17:35:55.428Z,53.70
2018-03-26T17:38:23.733Z,54.90
2018-03-26T17:40:51.306Z,54.90
2018-03-26T17:43:18.851Z,55.10
2018-03-26T17:45:46.387Z,54.90
2018-03-26T17:48:13.928Z,55.20
2018-03-26T17:50:41.447Z,55.00
2018-03-26T17:53:09.083Z,55.30
2018-03-26T17:55:36.666Z,55.90
2018-03-26T17:58:04.192Z,56.30
2018-03-26T18:00:32.479Z,56.90
2018-03-26T18:03:00.783Z,56.70
2018-03-26T18:05:28.384Z,56.60
2018-03-26T18:07:55.912Z,56.90
2018-03-26T18:10:23.506Z,56.90
2018-03-26T18:12:51.000Z,57.50
2018-03-26T18:15:19.461Z,58.30
2018-03-26T18:17:48.366Z,59.60
2018-03-26T18:20:16.668Z,60.10
2018-03-26T18:22:44.198Z,60.00
2018-03-26T18:25:12.497Z,60.80
2018-03-26T18:27:40.019Z,60.80
2018-03-26T18:30:07.544Z,60.70
2018-03-26T18:32:35.167Z,60.60
2018-03-26T18:35:02.736Z,61.00
2018-03-26T18:37:31.078Z,61.50
2018-03-26T18:39:58.609Z,61.50
2018-03-26T18:42:26.139Z,61.50
2018-03-26T18:44:53.728Z,61.90
2018-03-26T18:47:21.408Z,61.90
2018-03-26T18:49:49.089Z,61.90
2018-03-26T18:52:16.663Z,61.90
2018-03-26T18:54:44.211Z,61.90
2018-03-26T18:57:11.872Z,62.60
2018-03-26T18:59:39.443Z,62.50
2018-03-26T19:02:07.538Z,62.60
2018-03-26T19:04:35.820Z,63.30
2018-03-26T19:07:04.125Z,63.80
2018-03-26T19:09:31.680Z,63.80
2018-03-26T19:11:59.213Z,64.90
2018-03-26T19:14:27.634Z,64.60
2018-03-26T19:16:55.228Z,64.50
2018-03-26T19:19:23.302Z,64.60
2018-03-26T19:21:50.992Z,64.50
2018-03-26T19:24:18.563Z,64.30
2018-03-26T19:26:46.907Z,64.80
2018-03-26T19:29:14.484Z,64.80
2018-03-26T19:31:42.906Z,65.20
2018-03-26T19:34:10.511Z,65.90
2018-03-26T19:36:38.097Z,65.00
2018-03-26T19:39:10.724Z,65.60
2018-03-26T19:41:38.332Z,65.60
2018-03-26T19:44:05.977Z,65.90
2018-03-26T19:46:33.562Z,65.90
2018-03-26T19:49:01.107Z,66.30
2018-03-26T19:51:29.489Z,66.20
2018-03-26T19:53:57.128Z,67.10
2018-03-26T19:56:24.674Z,67.10
2018-03-26T19:58:52.268Z,67.00
2018-03-26T20:01:19.831Z,67.20
2018-03-26T20:03:47.408Z,67.50
2018-03-26T20:06:14.977Z,68.00
2018-03-26T20:08:43.266Z,67.90
2018-03-26T20:11:10.802Z,67.80
2018-03-26T20:13:38.339Z,68.50
2018-03-26T20:16:05.939Z,68.60
2018-03-26T20:18:33.468Z,68.90
2018-03-26T20:21:00.991Z,69.00
2018-03-26T20:23:28.513Z,69.30
2018-03-26T20:25:56.034Z,69.60
2018-03-26T20:28:23.570Z,69.60
2018-03-26T20:30:51.118Z,69.60
2018-03-26T20:33:18.650Z,69.70
2018-03-26T20:35:46.186Z,69.70
2018-03-26T20:38:14.022Z,69.80
2018-03-26T20:40:41.560Z,69.90
2018-03-26T20:43:09.896Z,70.20
2018-03-26T20:45:37.471Z,70.20
2018-03-26T20:48:05.009Z,70.70
2018-03-26T20:50:32.544Z,70.80
2018-03-26T20:53:00.171Z,71.60
2018-03-26T20:55:27.707Z,71.60
2018-03-26T20:57:55.235Z,72.30
2018-03-26T21:00:22.756Z,72.00
2018-03-26T21:02:51.046Z,71.60
2018-03-26T21:05:18.572Z,71.60
2018-03-26T21:07:46.095Z,72.00
2018-03-26T21:10:13.603Z,71.80
2018-03-26T21:12:41.932Z,71.80
2018-03-26T21:15:09.464Z,71.70
2018-03-26T21:17:37.767Z,72.00
2018-03-26T21:20:05.284Z,72.00
2018-03-26T21:22:33.570Z,72.50
2018-03-26T21:25:01.876Z,73.00
2018-03-26T21:27:29.505Z,73.00
2018-03-26T21:29:57.841Z,72.20
2018-03-26T21:32:25.350Z,72.20
2018-03-26T21:34:53.634Z,72.80
2018-03-26T21:37:21.921Z,72.90
2018-03-26T21:39:49.459Z,72.80
2018-03-26T21:42:17.793Z,73.00
2018-03-26T21:44:45.392Z,72.90
2018-03-26T21:47:12.911Z,73.70
2018-03-26T21:49:40.431Z,73.60
2018-03-26T21:52:09.350Z,72.80
2018-03-26T21:54:36.874Z,72.60
2018-03-26T21:57:04.400Z,72.80
2018-03-26T21:59:31.933Z,72.50
2018-03-26T22:01:59.458Z,73.00
2018-03-26T22:04:26.989Z,73.40
2018-03-26T22:06:54.519Z,73.40
2018-03-26T22:09:22.069Z,73.40
2018-03-26T22:11:49.604Z,74.30
2018-03-26T22:14:17.904Z,73.40
2018-03-26T22:16:45.415Z,73.30
2018-03-26T22:19:12.947Z,74.40
2018-03-26T22:21:40.529Z,73.90
2018-03-26T22:24:08.060Z,73.50
2018-03-26T22:26:36.354Z,73.90
2018-03-26T22:29:03.867Z,73.90
2018-03-26T22:31:32.143Z,73.60
2018-03-26T22:34:00.271Z,73.60
2018-03-26T22:36:27.796Z,73.70
2018-03-26T22:38:55.308Z,73.10
2018-03-26T22:41:22.824Z,73.50
2018-03-26T22:43:50.356Z,73.80
2018-03-26T22:46:17.892Z,74.20
2018-03-26T22:48:45.430Z,74.90
2018-03-26T22:51:12.958Z,75.00
2018-03-26T22:53:40.465Z,74.20
2018-03-26T22:56:07.995Z,74.20
2018-03-26T22:58:35.538Z,74.20
2018-03-26T23:01:03.820Z,74.30
2018-03-26T23:03:31.339Z,74.20
2018-03-26T23:05:58.865Z,74.20
2018-03-26T23:08:26.420Z,74.20
2018-03-26T23:10:53.950Z,74.10
2018-03-26T23:13:21.472Z,74.60
2018-03-26T23:15:48.996Z,75.10
2018-03-26T23:18:16.519Z,74.70
2018-03-26T23:20:44.040Z,74.40
2018-03-26T23:23:11.578Z,74.70
2018-03-26T23:25:39.125Z,74.30
2018-03-26T23:28:06.643Z,74.50
2018-03-26T23:30:34.174Z,75.20
2018-03-26T23:33:01.708Z,75.60
2018-03-26T23:35:29.243Z,75.70
2018-03-26T23:37:57.527Z,75.00
2018-03-26T23:40:25.040Z,74.90
2018-03-26T23:42:52.575Z,75.50
2018-03-26T23:45:20.603Z,75.60
2018-03-26T23:47:48.895Z,75.00
2018-03-26T23:50:16.432Z,75.00
2018-03-26T23:52:43.982Z,74.50
2018-03-26T23:55:11.503Z,74.80
2018-03-26T23:57:39.023Z,74.80
